createdAt,value
2022-11-16T00:02:43.781Z,99913.31
2022-11-16T00:07:45.940Z,99909.47
2022-11-16T00:12:47.953Z,99901.81
2022-11-16T00:17:49.983Z,99893.03
2022-11-16T00:22:52.024Z,99895.25
2022-11-16T00:27:54.052Z,99891.41
2022-11-16T00:33:00.615Z,99895.78
2022-11-16T00:38:02.634Z,99876.34
2022-11-16T00:43:04.693Z,99877.69
2022-11-16T00:48:06.719Z,99870.03
2022-11-16T00:53:12.891Z,99855.50
2022-11-16T00:58:15.739Z,99842.94
2022-11-16T01:03:17.848Z,99857.69
2022-11-16T01:08:19.881Z,99836.62
2022-11-16T01:13:21.970Z,99837.97
2022-11-16T01:18:24.017Z,99828.94
2022-11-16T01:23:26.027Z,99821.81
2022-11-16T01:28:30.400Z,99813.59
2022-11-16T01:33:32.526Z,99817.97
2022-11-16T01:38:34.887Z,99810.84
2022-11-16T01:44:01.289Z,99801.28
2022-11-16T01:49:24.149Z,99784.03
2022-11-16T01:54:27.396Z,99775.25
2022-11-16T01:59:30.315Z,99772.25
2022-11-16T02:04:32.485Z,99755.56
2022-11-16T02:09:59.370Z,99754.44
2022-11-16T02:15:01.350Z,99748.97
2022-11-16T02:20:29.446Z,99746.50
2022-11-16T02:25:40.086Z,99748.41
2022-11-16T02:30:47.131Z,99734.16
2022-11-16T02:35:55.254Z,99729.25
2022-11-16T02:41:02.192Z,99729.50
2022-11-16T02:46:09.110Z,99724.34
2022-11-16T02:51:12.012Z,99713.34
2022-11-16T02:56:14.096Z,99705.97
2022-11-16T03:01:24.921Z,99699.91
2022-11-16T03:06:32.355Z,99696.63
2022-11-16T03:11:57.382Z,99700.19
2022-11-16T03:17:01.961Z,99693.09
2022-11-16T03:22:12.455Z,99682.94
2022-11-16T03:27:20.712Z,99680.47
2022-11-16T03:32:38.988Z,99681.53
2022-11-16T03:37:41.836Z,99673.31
2022-11-16T03:42:45.821Z,99672.78
2022-11-16T03:47:47.889Z,99661.25
2022-11-16T03:52:49.915Z,99657.69
2022-11-16T03:57:51.949Z,99642.63
2022-11-16T04:02:53.967Z,99641.78
2022-11-16T04:08:14.766Z,99645.06
2022-11-16T04:13:42.314Z,99631.62
2022-11-16T04:19:03.125Z,99627.25
2022-11-16T04:24:14.846Z,99626.16
2022-11-16T04:29:17.194Z,99615.75
2022-11-16T04:34:37.843Z,99614.09
2022-11-16T04:39:39.876Z,99612.69
2022-11-16T04:45:00.727Z,99603.66
2022-11-16T04:50:02.983Z,99605.31
2022-11-16T04:55:05.564Z,99602.28
2022-11-16T05:00:08.382Z,99594.63
2022-11-16T05:05:10.490Z,99589.13
2022-11-16T05:10:13.351Z,99598.19
2022-11-16T05:15:17.648Z,99598.19
2022-11-16T05:20:38.495Z,99596.25
2022-11-16T05:25:40.535Z,99592.16
2022-11-16T05:30:45.718Z,99586.97
2022-11-16T05:35:51.067Z,99575.78
2022-11-16T05:40:53.132Z,99579.81
2022-11-16T05:45:55.142Z,99565.56
2022-11-16T05:51:00.473Z,99553.78
2022-11-16T05:56:02.620Z,99554.06
2022-11-16T06:01:04.790Z,99538.16
2022-11-16T06:06:07.203Z,99547.16
2022-11-16T06:11:10.383Z,99546.88
2022-11-16T06:16:13.465Z,99539.75
2022-11-16T06:21:17.579Z,99538.13
2022-11-16T06:26:19.663Z,99538.66
2022-11-16T06:31:22.410Z,99545.50
2022-11-16T06:36:24.709Z,99551.81
2022-11-16T06:41:26.771Z,99554.22
2022-11-16T06:46:28.830Z,99549.34
2022-11-16T06:51:30.847Z,99539.72
2022-11-16T06:56:35.092Z,99525.97
2022-11-16T07:01:37.301Z,99520.72
2022-11-16T07:06:39.663Z,99523.53
2022-11-16T07:11:41.744Z,99519.69
2022-11-16T07:21:54.602Z,99509.00
2022-11-16T07:26:56.674Z,99507.53
2022-11-16T07:31:58.931Z,99508.56
2022-11-16T07:37:01.008Z,99506.37
2022-11-16T07:42:03.060Z,99491.56
2022-11-16T07:47:06.015Z,99496.97
2022-11-16T07:52:11.782Z,99508.19
2022-11-16T07:57:13.968Z,99493.03
2022-11-16T08:02:16.132Z,99492.34
2022-11-16T08:07:19.056Z,99485.31
2022-11-16T08:12:21.231Z,99484.63
2022-11-16T08:17:23.330Z,99468.91
2022-11-16T08:22:25.381Z,99470.19
2022-11-16T08:27:27.532Z,99476.22
2022-11-16T08:32:30.746Z,99465.81
2022-11-16T08:37:33.850Z,99468.88
2022-11-16T08:42:40.758Z,99467.37
2022-11-16T08:47:45.675Z,99480.66
2022-11-16T08:52:48.292Z,99454.69
2022-11-16T08:57:50.333Z,99465.16
2022-11-16T09:02:52.417Z,99469.78
2022-11-16T09:07:54.450Z,99466.66
2022-11-16T09:12:56.565Z,99443.94
2022-11-16T09:17:58.642Z,99450.47
2022-11-16T09:23:00.765Z,99447.16
2022-11-16T09:28:02.817Z,99454.22
2022-11-16T09:33:04.809Z,99448.78
2022-11-16T09:38:07.562Z,99450.66
2022-11-16T09:43:19.405Z,99449.38
2022-11-16T09:48:23.641Z,99439.88
2022-11-16T09:53:42.690Z,99421.84
2022-11-16T09:59:05.877Z,99425.34
2022-11-16T10:04:13.064Z,99413.75
2022-11-16T10:09:16.077Z,99410.19
2022-11-16T10:14:40.649Z,99393.72
2022-11-16T10:19:55.119Z,99396.09
2022-11-16T10:25:20.506Z,99388.59
2022-11-16T10:30:23.457Z,99384.37
2022-11-16T10:35:40.774Z,99360.47
2022-11-16T10:40:47.597Z,99368.34
2022-11-16T10:46:00.026Z,99366.41
2022-11-16T10:51:02.132Z,99357.25
2022-11-16T10:56:23.146Z,99351.13
2022-11-16T11:01:37.858Z,99353.56
2022-11-16T11:06:40.494Z,99326.69
2022-11-16T11:12:00.974Z,99329.28
2022-11-16T11:17:12.290Z,99333.88
2022-11-16T11:22:15.278Z,99301.56
2022-11-16T11:27:23.174Z,99288.41
2022-11-16T11:32:38.530Z,99295.97
2022-11-16T11:37:40.690Z,99300.94
2022-11-16T11:43:01.899Z,99292.13
2022-11-16T11:48:29.062Z,99282.47
2022-11-16T11:53:48.197Z,99280.44
2022-11-16T11:58:51.946Z,99261.56
2022-11-16T12:04:22.887Z,99267.19
2022-11-16T12:09:40.815Z,99257.62
2022-11-16T12:15:27.057Z,99259.59
2022-11-16T12:20:47.177Z,99267.44
2022-11-16T12:26:10.719Z,99251.34
2022-11-16T12:31:30.899Z,99260.59
2022-11-16T12:36:35.599Z,99266.44
2022-11-16T12:42:02.725Z,99246.06
2022-11-16T12:47:49.462Z,99254.22
2022-11-16T12:52:57.773Z,99243.00
2022-11-16T12:58:24.797Z,99223.59
2022-11-16T13:03:42.957Z,99234.56
2022-11-16T13:09:10.892Z,99227.25
2022-11-16T13:14:18.166Z,99226.00
2022-11-16T13:19:21.135Z,99214.50
2022-11-16T13:24:40.647Z,99230.06
2022-11-16T13:29:51.563Z,99231.19
2022-11-16T13:34:54.644Z,99226.88
2022-11-16T13:39:59.799Z,99223.56
2022-11-16T13:45:13.970Z,99225.47
2022-11-16T13:50:19.677Z,99228.03
2022-11-16T13:55:33.393Z,99223.31
2022-11-16T14:00:38.619Z,99219.75
2022-11-16T14:05:43.217Z,99217.19
2022-11-16T14:10:45.219Z,99208.63
2022-11-16T14:16:16.614Z,99211.91
2022-11-16T14:21:18.710Z,99208.34
2022-11-16T14:26:41.026Z,99193.87
2022-11-16T14:32:03.646Z,99196.72
2022-11-16T14:37:06.067Z,99194.47
2022-11-16T14:42:18.158Z,99191.72
2022-11-16T14:47:28.790Z,99195.63
2022-11-16T14:52:38.847Z,99193.97
2022-11-16T14:57:41.233Z,99191.63
2022-11-16T15:02:51.026Z,99184.34
2022-11-16T15:07:59.011Z,99181.03
2022-11-16T15:13:01.266Z,99176.50
2022-11-16T15:18:03.231Z,99181.69
2022-11-16T15:23:14.337Z,99169.91
2022-11-16T15:28:28.689Z,99171.78
2022-11-16T15:33:38.227Z,99162.78
2022-11-16T15:38:41.801Z,99151.03
2022-11-16T15:44:12.654Z,99163.84
2022-11-16T15:49:33.568Z,99171.78
2022-11-16T15:54:55.929Z,99159.66
2022-11-16T15:59:58.209Z,99163.53
2022-11-16T16:05:00.245Z,99157.72
2022-11-16T16:10:24.275Z,99151.59
2022-11-16T16:15:36.194Z,99143.75
2022-11-16T16:20:38.392Z,99139.47
2022-11-16T16:25:41.451Z,99146.44
2022-11-16T16:30:45.815Z,99141.41
2022-11-16T16:35:49.851Z,99151.97
2022-11-16T16:40:51.959Z,99142.50
2022-11-16T16:45:54.008Z,99154.00
2022-11-16T16:50:56.130Z,99147.25
2022-11-16T16:55:58.170Z,99152.75
2022-11-16T17:01:04.968Z,99147.97
2022-11-16T17:06:07.084Z,99140.56
2022-11-16T17:11:10.180Z,99134.34
2022-11-16T17:16:12.428Z,99132.41
2022-11-16T17:21:17.460Z,99131.31
2022-11-16T17:26:20.452Z,99130.72
2022-11-16T17:31:23.258Z,99136.53
2022-11-16T17:36:25.353Z,99134.34
2022-11-16T17:41:28.110Z,99143.94
2022-11-16T17:46:30.157Z,99127.97
2022-11-16T17:51:32.516Z,99128.16
2022-11-16T17:56:34.686Z,99120.44
2022-11-16T18:01:36.981Z,99119.34
2022-11-16T18:06:39.965Z,99110.22
2022-11-16T18:11:42.361Z,99122.06
2022-11-16T18:16:44.465Z,99123.53
2022-11-16T18:21:46.924Z,99104.91
2022-11-16T18:26:48.989Z,99110.28
2022-11-16T18:31:51.082Z,99105.75
2022-11-16T18:36:53.176Z,99084.63
2022-11-16T18:41:56.351Z,99111.13
2022-11-16T18:46:58.366Z,99096.50
2022-11-16T18:52:00.479Z,99097.31
2022-11-16T18:57:02.523Z,99099.28
2022-11-16T19:02:04.621Z,99102.31
2022-11-16T19:07:07.729Z,99102.34
2022-11-16T19:12:09.928Z,99103.63
2022-11-16T19:17:12.024Z,99109.44
2022-11-16T19:22:16.658Z,99103.19
2022-11-16T19:27:32.569Z,99100.44
2022-11-16T19:32:34.607Z,99093.59
2022-11-16T19:37:37.529Z,99094.28
2022-11-16T19:42:39.661Z,99083.16
2022-11-16T19:47:41.836Z,99087.66
2022-11-16T19:52:48.061Z,99083.59
2022-11-16T19:57:50.334Z,99085.53
2022-11-16T20:02:57.407Z,99084.91
2022-11-16T20:07:59.544Z,99091.91
2022-11-16T20:13:01.829Z,99090.06
2022-11-16T20:18:04.042Z,99077.38
2022-11-16T20:23:15.760Z,99090.28
2022-11-16T20:28:18.013Z,99086.13
2022-11-16T20:38:40.768Z,99089.28
2022-11-16T20:43:44.002Z,99078.13
2022-11-16T20:48:47.162Z,99067.25
2022-11-16T20:53:50.367Z,99042.75
2022-11-16T20:58:52.720Z,99059.50
2022-11-16T21:03:56.388Z,99059.56
2022-11-16T21:08:59.092Z,99069.22
2022-11-16T21:14:16.044Z,99065.28
2022-11-16T21:19:18.178Z,99056.56
2022-11-16T21:24:21.775Z,99058.34
2022-11-16T21:29:26.085Z,99063.31
2022-11-16T21:34:33.541Z,99051.53
2022-11-16T21:39:38.042Z,99049.81
2022-11-16T21:44:43.077Z,99043.53
2022-11-16T21:50:09.808Z,99035.38
2022-11-16T21:55:11.958Z,99038.00
2022-11-16T22:00:14.750Z,99019.28
2022-11-16T22:05:35.687Z,99015.34
2022-11-16T22:10:42.388Z,99007.25
2022-11-16T22:15:44.443Z,99013.94
2022-11-16T22:20:48.180Z,99016.78
2022-11-16T22:25:50.221Z,99013.22
2022-11-16T22:31:20.322Z,99012.94
2022-11-16T22:36:22.593Z,99035.22
2022-11-16T22:41:25.040Z,99042.72
2022-11-16T22:46:27.616Z,99034.28
2022-11-16T22:51:30.827Z,99034.81
2022-11-16T22:56:33.544Z,99030.00
2022-11-16T23:01:36.334Z,99017.22
2022-11-16T23:06:38.374Z,99020.50
2022-11-16T23:11:58.980Z,99027.03
2022-11-16T23:17:01.464Z,99028.47
2022-11-16T23:22:22.727Z,99018.66
2022-11-16T23:27:30.765Z,99007.69
2022-11-16T23:32:33.173Z,99007.97
2022-11-16T23:37:35.567Z,99003.03
2022-11-16T23:42:56.310Z,99011.75
2022-11-16T23:47:58.568Z,99008.19
2022-11-16T23:53:00.675Z,99015.63
2022-11-16T23:58:02.704Z,99012.56
